createdAt,value
2022-12-29T00:11:44.487Z,17.85
2022-12-29T00:14:58.019Z,17.80
2022-12-29T00:17:41.466Z,18.00
2022-12-29T00:20:39.649Z,17.83
2022-12-29T00:27:02.406Z,18.55
2022-12-29T00:29:52.452Z,18.10
2022-12-29T00:32:58.406Z,17.33
2022-12-29T00:36:00.900Z,17.80
2022-12-29T00:39:56.439Z,18.40
2022-12-29T00:43:00.734Z,18.25
2022-12-29T00:49:36.202Z,18.60
2022-12-29T00:53:36.932Z,18.80
2022-12-29T00:56:24.758Z,18.70
2022-12-29T01:06:38.374Z,18.83
2022-12-29T01:10:04.025Z,17.90
2022-12-29T01:12:51.101Z,18.48
2022-12-29T01:16:01.427Z,17.92
2022-12-29T01:18:47.837Z,18.30
2022-12-29T01:21:18.112Z,18.05
2022-12-29T01:23:46.206Z,18.45
2022-12-29T01:26:27.390Z,18.27
2022-12-29T01:29:18.949Z,18.02
2022-12-29T01:32:06.903Z,17.75
2022-12-29T01:37:55.759Z,17.85
2022-12-29T01:40:33.782Z,17.92
2022-12-29T01:43:09.398Z,18.33
2022-12-29T01:45:48.701Z,18.33
2022-12-29T01:48:21.128Z,18.33
2022-12-29T01:51:08.592Z,17.73
2022-12-29T01:54:32.222Z,18.75
2022-12-29T02:00:54.351Z,17.60
2022-12-29T02:07:24.739Z,18.10
2022-12-29T02:10:50.025Z,17.35
2022-12-29T02:13:21.594Z,17.95
2022-12-29T02:16:19.642Z,17.80
2022-12-29T02:19:15.907Z,18.30
2022-12-29T02:22:20.967Z,18.52
2022-12-29T02:25:36.518Z,18.33
2022-12-29T02:28:41.993Z,18.30
2022-12-29T02:32:01.688Z,18.33
2022-12-29T02:35:09.344Z,18.98
2022-12-29T02:40:54.129Z,18.35
2022-12-29T02:43:37.385Z,18.83
2022-12-29T02:46:30.439Z,19.88
2022-12-29T02:49:18.136Z,19.55
2022-12-29T02:52:43.058Z,19.55
2022-12-29T02:55:20.913Z,20.33
2022-12-29T02:58:49.625Z,21.05
2022-12-29T03:02:41.972Z,19.48
2022-12-29T03:06:05.472Z,19.17
2022-12-29T03:09:35.036Z,18.48
2022-12-29T03:13:10.124Z,18.30
2022-12-29T03:16:09.982Z,19.05
2022-12-29T03:19:16.715Z,18.63
2022-12-29T03:22:30.756Z,18.77
2022-12-29T03:25:19.567Z,19.08
2022-12-29T03:31:10.659Z,20.25
2022-12-29T03:33:52.886Z,19.52
2022-12-29T03:36:58.431Z,20.75
2022-12-29T03:39:43.866Z,19.50
2022-12-29T03:42:27.516Z,19.98
2022-12-29T03:45:12.805Z,20.05
2022-12-29T03:47:55.519Z,19.27
2022-12-29T03:51:02.553Z,20.13
2022-12-29T03:54:00.204Z,20.67
2022-12-29T03:56:57.063Z,21.13
2022-12-29T04:02:54.032Z,19.75
2022-12-29T04:10:01.887Z,20.70
2022-12-29T04:12:36.645Z,20.83
2022-12-29T04:15:13.050Z,20.23
2022-12-29T04:17:57.672Z,22.15
2022-12-29T04:20:47.023Z,21.55
2022-12-29T04:23:19.096Z,21.75
2022-12-29T04:26:05.301Z,20.95
2022-12-29T04:28:35.727Z,22.17
2022-12-29T04:31:09.637Z,21.02
2022-12-29T04:33:44.624Z,21.63
2022-12-29T04:36:19.617Z,22.25
2022-12-29T04:39:01.420Z,22.88
2022-12-29T04:41:29.959Z,22.20
2022-12-29T04:44:19.817Z,23.25
2022-12-29T04:46:54.103Z,22.50
2022-12-29T04:49:29.604Z,22.65
2022-12-29T04:52:15.905Z,22.08
2022-12-29T04:54:55.008Z,22.60
2022-12-29T04:57:35.773Z,21.23
2022-12-29T05:00:12.592Z,22.67
2022-12-29T05:02:50.424Z,23.00
2022-12-29T05:05:45.217Z,22.85
2022-12-29T05:08:46.195Z,22.65
2022-12-29T05:11:21.601Z,23.50
2022-12-29T05:13:56.636Z,24.00
2022-12-29T05:17:11.113Z,23.98
2022-12-29T05:19:45.140Z,22.40
2022-12-29T05:22:29.947Z,23.98
2022-12-29T05:25:15.955Z,24.58
2022-12-29T05:28:09.465Z,22.33
2022-12-29T05:31:32.277Z,20.67
2022-12-29T05:37:24.739Z,22.25
2022-12-29T05:40:18.875Z,22.08
2022-12-29T05:43:12.039Z,22.58
2022-12-29T05:46:10.387Z,24.23
2022-12-29T05:49:00.219Z,27.15
2022-12-29T05:51:32.055Z,26.27
2022-12-29T05:54:18.273Z,25.58
2022-12-29T05:56:54.567Z,24.67
2022-12-29T05:59:32.366Z,22.13
2022-12-29T06:03:14.262Z,22.38
2022-12-29T06:06:18.686Z,21.65
2022-12-29T06:13:08.912Z,21.45
2022-12-29T06:15:45.785Z,25.98
2022-12-29T06:18:33.148Z,20.30
2022-12-29T06:21:10.497Z,26.05
2022-12-29T06:24:21.206Z,23.73
2022-12-29T06:28:07.674Z,20.77
2022-12-29T06:31:14.030Z,20.88
2022-12-29T06:34:39.933Z,23.13
2022-12-29T06:37:48.091Z,21.85
2022-12-29T06:41:25.638Z,25.73
2022-12-29T06:48:36.755Z,22.85
2022-12-29T06:52:12.689Z,22.52
2022-12-29T06:54:50.440Z,20.05
2022-12-29T06:57:33.707Z,20.52
2022-12-29T07:00:25.304Z,20.55
2022-12-29T07:03:07.349Z,19.88
2022-12-29T07:05:51.495Z,19.85
2022-12-29T07:08:21.256Z,20.45
2022-12-29T07:10:59.396Z,19.48
2022-12-29T07:13:55.259Z,20.05
2022-12-29T07:16:54.783Z,20.35
2022-12-29T07:19:29.061Z,20.40
2022-12-29T07:22:31.826Z,20.23
2022-12-29T07:28:15.640Z,20.35
2022-12-29T07:31:01.512Z,24.17
2022-12-29T07:33:55.650Z,21.35
2022-12-29T07:36:32.377Z,28.00
2022-12-29T07:39:14.231Z,19.90
2022-12-29T07:41:58.264Z,23.70
2022-12-29T07:44:50.340Z,20.80
2022-12-29T07:48:04.512Z,26.98
2022-12-29T07:50:42.652Z,26.02
2022-12-29T07:53:22.013Z,27.30
2022-12-29T07:55:50.329Z,24.83
2022-12-29T07:58:36.085Z,24.70
2022-12-29T08:01:12.850Z,20.38
2022-12-29T08:04:06.764Z,24.10
2022-12-29T08:06:37.562Z,20.63
2022-12-29T08:09:19.584Z,23.15
2022-12-29T08:11:50.587Z,25.85
2022-12-29T08:14:59.987Z,23.52
2022-12-29T08:17:33.790Z,21.90
2022-12-29T08:20:38.999Z,21.50
2022-12-29T08:24:45.291Z,25.50
2022-12-29T08:31:53.674Z,21.23
2022-12-29T08:35:58.143Z,29.08
2022-12-29T08:39:33.041Z,21.48
2022-12-29T08:56:49.456Z,26.08
2022-12-29T09:02:45.674Z,23.30
2022-12-29T09:05:20.318Z,24.13
2022-12-29T09:11:15.870Z,20.90
2022-12-29T09:26:49.592Z,21.85
2022-12-29T10:04:27.468Z,27.95
2022-12-29T10:07:29.091Z,27.85
2022-12-29T10:10:12.891Z,23.88
2022-12-29T10:13:18.060Z,31.33
2022-12-29T10:16:14.057Z,26.70
2022-12-29T10:19:33.130Z,27.50
2022-12-29T10:22:24.690Z,25.88
2022-12-29T10:25:08.622Z,28.05
2022-12-29T10:27:51.631Z,27.38
2022-12-29T10:30:22.191Z,24.75
2022-12-29T10:33:11.284Z,30.85
2022-12-29T10:35:47.381Z,25.83
2022-12-29T10:38:48.895Z,30.80
2022-12-29T10:41:35.780Z,26.25
2022-12-29T10:44:17.361Z,28.00
2022-12-29T10:47:17.857Z,21.35
2022-12-29T10:50:31.565Z,27.65
2022-12-29T10:53:18.868Z,26.67
2022-12-29T10:56:20.112Z,25.60
2022-12-29T10:59:09.384Z,29.63
2022-12-29T11:05:07.217Z,29.98
2022-12-29T11:07:44.017Z,30.08
2022-12-29T11:10:27.244Z,28.45
2022-12-29T11:13:15.927Z,24.17
2022-12-29T11:16:02.315Z,26.98
2022-12-29T11:18:57.038Z,24.42
2022-12-29T11:21:43.674Z,29.45
2022-12-29T11:24:40.264Z,27.90
2022-12-29T11:27:32.732Z,29.42
2022-12-29T11:30:31.496Z,26.70
2022-12-29T11:33:06.676Z,30.92
2022-12-29T11:36:07.392Z,21.95
2022-12-29T11:38:50.507Z,19.58
2022-12-29T11:41:36.256Z,21.95
2022-12-29T11:44:08.183Z,17.23
2022-12-29T11:47:06.287Z,24.30
2022-12-29T11:49:50.948Z,17.42
2022-12-29T11:52:27.974Z,20.40
2022-12-29T11:55:14.931Z,20.08
2022-12-29T11:57:59.152Z,27.92
2022-12-29T12:00:59.595Z,21.85
2022-12-29T12:03:44.975Z,23.58
2022-12-29T12:06:29.335Z,25.25
2022-12-29T12:09:27.556Z,30.77
2022-12-29T12:12:18.772Z,26.75
2022-12-29T12:15:08.912Z,26.65
2022-12-29T12:17:51.865Z,21.35
2022-12-29T12:20:51.780Z,20.83
2022-12-29T12:23:34.064Z,21.25
2022-12-29T12:26:12.384Z,25.75
2022-12-29T12:29:21.921Z,20.98
2022-12-29T12:32:03.832Z,23.65
2022-12-29T12:34:53.189Z,18.58
2022-12-29T12:38:10.242Z,20.17
2022-12-29T12:41:15.516Z,21.70
2022-12-29T12:44:02.046Z,23.20
2022-12-29T12:47:03.711Z,23.38
2022-12-29T12:53:36.441Z,23.33
2022-12-29T12:56:40.623Z,22.90
2022-12-29T12:59:29.331Z,23.25
2022-12-29T13:02:26.973Z,21.80
2022-12-29T13:05:24.458Z,24.10
2022-12-29T13:08:25.505Z,24.38
2022-12-29T13:11:19.045Z,22.77
2022-12-29T13:14:08.749Z,23.67
2022-12-29T13:16:53.932Z,27.98
2022-12-29T13:19:35.404Z,23.90
2022-12-29T13:22:21.107Z,24.13
2022-12-29T13:25:28.246Z,28.73
2022-12-29T13:28:34.795Z,24.80
2022-12-29T13:31:17.488Z,22.40
2022-12-29T13:34:18.731Z,22.90
2022-12-29T13:36:57.748Z,24.02
2022-12-29T13:39:48.738Z,23.60
2022-12-29T13:42:28.408Z,24.00
2022-12-29T13:45:04.948Z,23.35
2022-12-29T13:47:43.207Z,23.08
2022-12-29T13:50:20.803Z,22.75
2022-12-29T13:53:05.751Z,21.55
2022-12-29T13:55:41.357Z,22.00
2022-12-29T13:58:24.752Z,22.30
2022-12-29T14:01:01.015Z,22.33
2022-12-29T14:03:52.477Z,22.73
2022-12-29T14:06:33.581Z,22.27
2022-12-29T14:09:06.381Z,22.42
2022-12-29T14:11:37.941Z,21.63
2022-12-29T14:14:24.018Z,21.15
2022-12-29T14:16:56.419Z,21.33
2022-12-29T14:19:30.377Z,21.88
2022-12-29T14:22:06.663Z,21.80
2022-12-29T14:24:45.111Z,23.33
2022-12-29T14:27:59.203Z,21.38
2022-12-29T14:31:09.230Z,22.17
2022-12-29T14:34:19.887Z,25.35
2022-12-29T14:37:33.888Z,23.40
2022-12-29T14:40:40.171Z,21.30
2022-12-29T14:43:29.338Z,21.35
2022-12-29T14:46:26.221Z,20.55
2022-12-29T14:49:15.328Z,21.80
2022-12-29T14:51:52.155Z,19.92
2022-12-29T14:54:52.268Z,20.92
2022-12-29T14:57:58.192Z,21.08
2022-12-29T15:00:50.510Z,22.30
2022-12-29T15:03:39.706Z,22.23
2022-12-29T15:06:26.917Z,21.92
2022-12-29T15:09:12.100Z,22.02
2022-12-29T15:12:01.737Z,21.60
2022-12-29T15:14:46.770Z,23.00
2022-12-29T15:17:38.645Z,25.80
2022-12-29T15:20:39.450Z,21.00
2022-12-29T15:23:37.418Z,22.08
2022-12-29T15:26:24.107Z,22.17
2022-12-29T15:29:09.999Z,22.30
2022-12-29T15:31:53.051Z,19.33
2022-12-29T15:34:43.218Z,24.90
2022-12-29T15:37:42.536Z,21.02
2022-12-29T15:41:02.667Z,20.98
2022-12-29T15:43:47.193Z,21.17
2022-12-29T15:46:25.320Z,21.17
2022-12-29T15:48:57.299Z,25.63
2022-12-29T15:51:38.376Z,21.23
2022-12-29T15:54:20.259Z,20.73
2022-12-29T15:56:56.940Z,20.77
2022-12-29T15:59:38.573Z,26.48
2022-12-29T16:02:24.290Z,21.52
2022-12-29T16:08:02.388Z,20.05
2022-12-29T16:10:42.318Z,20.25
2022-12-29T16:13:39.631Z,19.40
2022-12-29T16:16:33.174Z,20.25
2022-12-29T16:19:20.670Z,20.60
2022-12-29T16:22:05.452Z,19.67
2022-12-29T16:24:46.208Z,19.77
2022-12-29T16:27:38.309Z,21.17
2022-12-29T16:30:29.519Z,20.45
2022-12-29T16:33:07.203Z,21.73
2022-12-29T16:35:51.588Z,24.45
2022-12-29T16:38:25.284Z,21.08
2022-12-29T16:40:56.994Z,22.63
2022-12-29T16:43:32.013Z,20.63
2022-12-29T16:46:22.921Z,24.48
2022-12-29T16:49:13.587Z,20.33
2022-12-29T16:51:46.703Z,20.88
2022-12-29T16:54:29.638Z,20.83
2022-12-29T16:57:08.941Z,22.15
2022-12-29T16:59:46.284Z,20.27
2022-12-29T17:02:33.692Z,20.40
2022-12-29T17:05:05.925Z,21.95
2022-12-29T17:07:39.207Z,21.08
2022-12-29T17:10:18.125Z,23.20
2022-12-29T17:12:50.886Z,20.77
2022-12-29T17:15:30.480Z,21.40
2022-12-29T17:18:13.446Z,28.70
2022-12-29T17:21:01.775Z,24.00
2022-12-29T17:23:42.618Z,21.23
2022-12-29T17:26:20.036Z,21.25
2022-12-29T17:29:01.481Z,21.15
2022-12-29T17:31:37.795Z,20.60
2022-12-29T17:34:13.425Z,23.30
2022-12-29T17:36:45.074Z,21.33
2022-12-29T17:39:18.500Z,21.27
2022-12-29T17:41:52.170Z,21.90
2022-12-29T17:44:27.006Z,21.75
2022-12-29T17:46:59.909Z,22.33
2022-12-29T17:49:30.460Z,21.27
2022-12-29T17:52:02.783Z,24.23
2022-12-29T17:54:31.494Z,24.00
2022-12-29T17:57:00.959Z,23.40
2022-12-29T17:59:33.759Z,23.92
2022-12-29T18:02:26.165Z,22.65
2022-12-29T18:05:02.806Z,23.98
2022-12-29T18:07:35.928Z,24.48
2022-12-29T18:10:06.931Z,21.83
2022-12-29T18:12:47.209Z,21.98
2022-12-29T18:15:28.656Z,23.42
2022-12-29T18:18:06.286Z,21.45
2022-12-29T18:20:35.229Z,25.83
2022-12-29T18:23:18.862Z,27.45
2022-12-29T18:25:54.934Z,23.20
2022-12-29T18:28:24.032Z,23.23
2022-12-29T18:30:56.502Z,23.00
2022-12-29T18:33:30.792Z,24.15
2022-12-29T18:36:02.288Z,25.50
2022-12-29T18:38:35.981Z,27.27
2022-12-29T18:41:15.684Z,23.33
2022-12-29T18:43:53.731Z,35.95
2022-12-29T18:46:42.737Z,30.45
2022-12-29T18:49:23.882Z,25.58
2022-12-29T18:52:14.009Z,23.35
2022-12-29T18:54:57.520Z,29.48
2022-12-29T18:57:42.862Z,24.77
2022-12-29T19:00:36.112Z,27.90
2022-12-29T19:03:18.228Z,23.13
2022-12-29T19:06:08.763Z,30.55
2022-12-29T19:08:59.326Z,26.23
2022-12-29T19:11:37.555Z,26.60
2022-12-29T19:14:19.626Z,27.92
2022-12-29T19:16:53.833Z,33.95
2022-12-29T19:19:28.032Z,22.63
2022-12-29T19:22:12.887Z,25.00
2022-12-29T19:24:53.603Z,29.27
2022-12-29T19:27:25.909Z,26.27
2022-12-29T19:30:14.347Z,30.98
2022-12-29T19:32:49.334Z,24.92
2022-12-29T19:35:33.018Z,26.48
2022-12-29T19:38:34.136Z,27.52
2022-12-29T19:41:10.477Z,28.00
2022-12-29T19:44:14.929Z,27.25
2022-12-29T19:47:11.207Z,25.20
2022-12-29T19:49:58.903Z,32.13
2022-12-29T19:52:55.597Z,26.48
2022-12-29T19:55:59.704Z,25.73
2022-12-29T19:58:42.601Z,25.40
2022-12-29T20:01:37.472Z,26.55
2022-12-29T20:07:05.231Z,21.92
2022-12-29T20:09:50.213Z,24.45
2022-12-29T20:12:36.789Z,32.83
2022-12-29T20:15:15.884Z,29.60
2022-12-29T20:20:56.864Z,27.42
2022-12-29T20:23:28.542Z,28.15
2022-12-29T20:26:10.918Z,24.50
2022-12-29T20:28:54.901Z,26.98
2022-12-29T20:34:33.383Z,35.95
2022-12-29T20:37:26.175Z,28.02
2022-12-29T20:40:25.890Z,27.98
2022-12-29T20:46:20.871Z,24.77
2022-12-29T20:49:27.215Z,25.83
2022-12-29T20:52:44.167Z,22.48
2022-12-29T20:55:30.734Z,28.48
2022-12-29T20:58:26.159Z,26.23
2022-12-29T21:01:13.410Z,24.42
2022-12-29T21:03:57.494Z,28.60
2022-12-29T21:06:42.512Z,24.15
2022-12-29T21:09:30.739Z,29.52
2022-12-29T21:12:17.548Z,23.17
2022-12-29T21:14:53.124Z,29.48
2022-12-29T21:17:46.823Z,27.67
2022-12-29T21:20:39.404Z,31.02
2022-12-29T21:23:20.365Z,28.83
2022-12-29T21:26:02.601Z,22.83
2022-12-29T21:28:37.577Z,24.67
2022-12-29T21:31:39.145Z,28.23
2022-12-29T21:34:37.047Z,25.30
2022-12-29T21:37:31.632Z,27.50
2022-12-29T21:40:29.202Z,21.57
2022-12-29T21:43:32.029Z,24.50
2022-12-29T21:46:22.104Z,24.80
2022-12-29T21:49:23.278Z,25.53
2022-12-29T21:52:36.956Z,23.98
2022-12-29T21:55:26.295Z,22.13
2022-12-29T21:58:28.175Z,25.97
2022-12-29T22:01:49.433Z,24.47
2022-12-29T22:15:27.924Z,25.57
2022-12-29T22:18:26.811Z,22.90
2022-12-29T22:21:47.634Z,37.23
2022-12-29T22:37:14.507Z,24.70
2022-12-29T22:40:03.847Z,28.25
2022-12-29T22:45:55.184Z,26.43
2022-12-29T22:49:23.164Z,27.63
2022-12-29T22:52:23.695Z,25.97
2022-12-29T22:55:41.846Z,31.00
2022-12-29T22:59:02.320Z,29.33
2022-12-29T23:02:10.516Z,23.93
2022-12-29T23:05:13.882Z,27.73
2022-12-29T23:08:30.893Z,22.33
2022-12-29T23:12:21.537Z,22.17
2022-12-29T23:14:49.022Z,22.40
2022-12-29T23:24:11.417Z,21.60
2022-12-29T23:27:41.102Z,22.98
2022-12-29T23:30:56.394Z,22.87
2022-12-29T23:34:48.052Z,24.23
2022-12-29T23:37:48.825Z,22.80
2022-12-29T23:40:52.767Z,24.10
2022-12-29T23:44:22.343Z,22.03
2022-12-29T23:48:20.675Z,25.50
2022-12-29T23:54:23.462Z,28.77
2022-12-29T23:58:01.758Z,23.00
